sensor_id;sensor_type;location;lat;lon;timestamp;temperature;humidity
42145;DHT22;27813;43.516;11.890;2023-06-10T04:33:11;18.80;89.40
42145;DHT22;27813;43.516;11.890;2023-06-10T04:37:17;18.90;89.30
42145;DHT22;27813;43.516;11.890;2023-06-10T04:41:22;19.00;89.40
42145;DHT22;27813;43.516;11.890;2023-06-10T04:45:28;19.10;89.30
42145;DHT22;27813;43.516;11.890;2023-06-10T04:49:35;19.10;89.20
42145;DHT22;27813;43.516;11.890;2023-06-10T04:53:39;19.20;89.20
42145;DHT22;27813;43.516;11.890;2023-06-10T04:57:44;19.30;89.20
42145;DHT22;27813;43.516;11.890;2023-06-10T05:01:54;19.40;89.20
42145;DHT22;27813;43.516;11.890;2023-06-10T05:05:59;19.50;89.20
42145;DHT22;27813;43.516;11.890;2023-06-10T05:10:03;19.60;89.10
42145;DHT22;27813;43.516;11.890;2023-06-10T05:14:07;19.70;89.10
42145;DHT22;27813;43.516;11.890;2023-06-10T05:18:12;19.90;89.00
42145;DHT22;27813;43.516;11.890;2023-06-10T05:22:16;20.00;88.80
42145;DHT22;27813;43.516;11.890;2023-06-10T05:26:22;20.20;88.60
42145;DHT22;27813;43.516;11.890;2023-06-10T05:30:26;20.40;88.50
42145;DHT22;27813;43.516;11.890;2023-06-10T05:34:31;20.50;88.30
42145;DHT22;27813;43.516;11.890;2023-06-10T05:38:35;20.70;88.30
42145;DHT22;27813;43.516;11.890;2023-06-10T05:42:39;20.90;88.10
42145;DHT22;27813;43.516;11.890;2023-06-10T05:46:44;21.10;87.80
42145;DHT22;27813;43.516;11.890;2023-06-10T05:50:48;21.30;87.60
42145;DHT22;27813;43.516;11.890;2023-06-10T05:54:52;21.50;87.30
42145;DHT22;27813;43.516;11.890;2023-06-10T05:58:58;21.50;87.10
42145;DHT22;27813;43.516;11.890;2023-06-10T06:03:02;21.50;87.00
42145;DHT22;27813;43.516;11.890;2023-06-10T06:07:06;21.50;87.10
42145;DHT22;27813;43.516;11.890;2023-06-10T06:11:11;21.50;87.10
42145;DHT22;27813;43.516;11.890;2023-06-10T06:15:15;21.70;86.90
42145;DHT22;27813;43.516;11.890;2023-06-10T06:19:19;21.80;86.60
42145;DHT22;27813;43.516;11.890;2023-06-10T06:23:24;22.00;86.30
42145;DHT22;27813;43.516;11.890;2023-06-10T06:27:28;22.00;86.10
42145;DHT22;27813;43.516;11.890;2023-06-10T06:31:32;22.10;85.80
42145;DHT22;27813;43.516;11.890;2023-06-10T06:35:38;22.20;85.50
42145;DHT22;27813;43.516;11.890;2023-06-10T06:39:45;22.30;85.40
42145;DHT22;27813;43.516;11.890;2023-06-10T06:43:50;22.30;85.20
42145;DHT22;27813;43.516;11.890;2023-06-10T06:52:52;22.20;85.00
42145;DHT22;27813;43.516;11.890;2023-06-10T06:56:56;22.30;84.90
42145;DHT22;27813;43.516;11.890;2023-06-10T07:01:01;22.40;84.80
42145;DHT22;27813;43.516;11.890;2023-06-10T07:05:05;22.50;84.50
42145;DHT22;27813;43.516;11.890;2023-06-10T07:09:11;22.90;84.00
42145;DHT22;27813;43.516;11.890;2023-06-10T07:13:15;23.20;83.30
42145;DHT22;27813;43.516;11.890;2023-06-10T07:17:19;23.70;82.40
42145;DHT22;27813;43.516;11.890;2023-06-10T07:21:24;24.10;81.60
42145;DHT22;27813;43.516;11.890;2023-06-10T07:25:28;24.50;80.60
42145;DHT22;27813;43.516;11.890;2023-06-10T07:29:32;24.80;79.80
42145;DHT22;27813;43.516;11.890;2023-06-10T07:33:36;25.10;79.10
42145;DHT22;27813;43.516;11.890;2023-06-10T07:37:41;25.50;78.50
42145;DHT22;27813;43.516;11.890;2023-06-10T07:41:46;25.80;77.70
42145;DHT22;27813;43.516;11.890;2023-06-10T07:45:50;26.00;76.90
42145;DHT22;27813;43.516;11.890;2023-06-10T07:49:54;26.30;76.10
42145;DHT22;27813;43.516;11.890;2023-06-10T07:53:59;26.50;75.30
42145;DHT22;27813;43.516;11.890;2023-06-10T07:58:03;26.80;74.40
42145;DHT22;27813;43.516;11.890;2023-06-10T08:02:07;26.90;73.60
42145;DHT22;27813;43.516;11.890;2023-06-10T08:06:11;27.00;73.30
42145;DHT22;27813;43.516;11.890;2023-06-10T08:10:15;27.50;72.70
42145;DHT22;27813;43.516;11.890;2023-06-10T08:14:19;28.20;71.00
42145;DHT22;27813;43.516;11.890;2023-06-10T08:18:24;28.50;69.80
42145;DHT22;27813;43.516;11.890;2023-06-10T08:22:28;28.50;69.20
42145;DHT22;27813;43.516;11.890;2023-06-10T08:26:33;28.40;69.10
42145;DHT22;27813;43.516;11.890;2023-06-10T08:30:37;28.40;68.90
42145;DHT22;27813;43.516;11.890;2023-06-10T08:34:41;28.80;68.20
42145;DHT22;27813;43.516;11.890;2023-06-10T08:38:45;29.20;67.00
42145;DHT22;27813;43.516;11.890;2023-06-10T08:43:06;29.50;66.30
42145;DHT22;27813;43.516;11.890;2023-06-10T08:47:16;29.70;65.10
42145;DHT22;27813;43.516;11.890;2023-06-10T08:51:21;30.00;64.50
42145;DHT22;27813;43.516;11.890;2023-06-10T08:55:32;30.60;63.40
42145;DHT22;27813;43.516;11.890;2023-06-10T08:59:37;30.90;62.50
42145;DHT22;27813;43.516;11.890;2023-06-10T09:03:43;31.10;61.80
42145;DHT22;27813;43.516;11.890;2023-06-10T09:07:48;31.40;61.00
42145;DHT22;27813;43.516;11.890;2023-06-10T09:11:53;31.40;60.20
42145;DHT22;27813;43.516;11.890;2023-06-10T09:15:57;31.30;59.80
42145;DHT22;27813;43.516;11.890;2023-06-10T09:20:10;31.10;60.00
42145;DHT22;27813;43.516;11.890;2023-06-10T09:24:15;30.80;60.90
42145;DHT22;27813;43.516;11.890;2023-06-10T09:28:19;31.10;60.70
42145;DHT22;27813;43.516;11.890;2023-06-10T09:32:23;31.50;59.50
42145;DHT22;27813;43.516;11.890;2023-06-10T09:36:28;32.00;57.70
42145;DHT22;27813;43.516;11.890;2023-06-10T09:40:33;32.60;56.40
42145;DHT22;27813;43.516;11.890;2023-06-10T09:44:53;33.30;54.50
42145;DHT22;27813;43.516;11.890;2023-06-10T09:48:58;33.80;52.90
42145;DHT22;27813;43.516;11.890;2023-06-10T09:53:02;35.10;50.70
42145;DHT22;27813;43.516;11.890;2023-06-10T09:57:08;35.20;49.60
42145;DHT22;27813;43.516;11.890;2023-06-10T10:01:15;36.60;47.70
42145;DHT22;27813;43.516;11.890;2023-06-10T10:05:22;37.20;45.60
42145;DHT22;27813;43.516;11.890;2023-06-10T10:09:28;37.10;44.90
42145;DHT22;27813;43.516;11.890;2023-06-10T10:13:34;36.60;44.60
42145;DHT22;27813;43.516;11.890;2023-06-10T10:17:51;36.30;44.80
42145;DHT22;27813;43.516;11.890;2023-06-10T10:22:04;36.50;44.20
42145;DHT22;27813;43.516;11.890;2023-06-10T10:26:10;36.80;43.50
42145;DHT22;27813;43.516;11.890;2023-06-10T10:30:17;37.40;42.90
42145;DHT22;27813;43.516;11.890;2023-06-10T10:34:32;37.30;42.00
42145;DHT22;27813;43.516;11.890;2023-06-10T10:38:37;37.70;41.50
42145;DHT22;27813;43.516;11.890;2023-06-10T10:42:41;38.00;41.00
42145;DHT22;27813;43.516;11.890;2023-06-10T10:46:50;37.90;40.80
42145;DHT22;27813;43.516;11.890;2023-06-10T10:50:57;37.00;41.20
42145;DHT22;27813;43.516;11.890;2023-06-10T10:55:12;36.00;42.10
42145;DHT22;27813;43.516;11.890;2023-06-10T10:59:16;34.60;44.30
42145;DHT22;27813;43.516;11.890;2023-06-10T11:03:28;32.80;47.70
42145;DHT22;27813;43.516;11.890;2023-06-10T11:07:35;31.50;50.80
42145;DHT22;27813;43.516;11.890;2023-06-10T11:11:49;30.40;53.90
42145;DHT22;27813;43.516;11.890;2023-06-10T11:15:57;30.30;54.60
42145;DHT22;27813;43.516;11.890;2023-06-10T11:20:02;30.70;54.20
42145;DHT22;27813;43.516;11.890;2023-06-10T11:24:13;31.10;53.40
42145;DHT22;27813;43.516;11.890;2023-06-10T11:28:27;31.60;52.80
42145;DHT22;27813;43.516;11.890;2023-06-10T11:32:35;32.20;51.60
42145;DHT22;27813;43.516;11.890;2023-06-10T11:36:41;32.60;50.60
42145;DHT22;27813;43.516;11.890;2023-06-10T11:40:49;32.80;50.20
42145;DHT22;27813;43.516;11.890;2023-06-10T11:44:54;33.30;50.00
42145;DHT22;27813;43.516;11.890;2023-06-10T11:49:00;34.50;47.90
42145;DHT22;27813;43.516;11.890;2023-06-10T11:53:08;34.90;46.80
42145;DHT22;27813;43.516;11.890;2023-06-10T11:57:12;34.80;46.80
42145;DHT22;27813;43.516;11.890;2023-06-10T12:01:23;34.60;46.80
42145;DHT22;27813;43.516;11.890;2023-06-10T12:05:32;34.40;46.70
42145;DHT22;27813;43.516;11.890;2023-06-10T12:09:36;34.10;46.80
42145;DHT22;27813;43.516;11.890;2023-06-10T12:13:48;34.00;47.20
42145;DHT22;27813;43.516;11.890;2023-06-10T12:17:53;34.00;47.20
42145;DHT22;27813;43.516;11.890;2023-06-10T12:22:00;34.20;46.90
42145;DHT22;27813;43.516;11.890;2023-06-10T12:26:04;34.10;46.90
42145;DHT22;27813;43.516;11.890;2023-06-10T12:30:09;34.00;46.90
42145;DHT22;27813;43.516;11.890;2023-06-10T12:34:13;33.90;47.00
42145;DHT22;27813;43.516;11.890;2023-06-10T12:38:25;33.90;46.90
42145;DHT22;27813;43.516;11.890;2023-06-10T12:42:33;33.90;47.30
42145;DHT22;27813;43.516;11.890;2023-06-10T12:46:41;35.00;46.40
42145;DHT22;27813;43.516;11.890;2023-06-10T12:50:57;35.40;45.00
42145;DHT22;27813;43.516;11.890;2023-06-10T12:55:01;35.10;45.00
42145;DHT22;27813;43.516;11.890;2023-06-10T12:59:07;34.50;45.60
42145;DHT22;27813;43.516;11.890;2023-06-10T13:03:12;33.70;46.30
42145;DHT22;27813;43.516;11.890;2023-06-10T13:07:17;33.00;47.00
42145;DHT22;27813;43.516;11.890;2023-06-10T13:11:21;32.30;47.70
42145;DHT22;27813;43.516;11.890;2023-06-10T13:15:27;31.80;48.40
42145;DHT22;27813;43.516;11.890;2023-06-10T13:25:20;30.90;49.40
42145;DHT22;27813;43.516;11.890;2023-06-10T13:29:24;30.40;50.10
42145;DHT22;27813;43.516;11.890;2023-06-10T13:33:28;30.00;50.40
42145;DHT22;27813;43.516;11.890;2023-06-10T13:37:33;29.60;51.00
42145;DHT22;27813;43.516;11.890;2023-06-10T13:41:37;29.10;51.80
42145;DHT22;27813;43.516;11.890;2023-06-10T13:45:42;28.60;52.60
42145;DHT22;27813;43.516;11.890;2023-06-10T13:49:46;28.10;53.50
42145;DHT22;27813;43.516;11.890;2023-06-10T13:53:50;27.70;54.40
42145;DHT22;27813;43.516;11.890;2023-06-10T13:57:55;27.20;55.30
42145;DHT22;27813;43.516;11.890;2023-06-10T14:01:59;26.40;58.20
42145;DHT22;27813;43.516;11.890;2023-06-10T14:06:04;25.60;62.30
42145;DHT22;27813;43.516;11.890;2023-06-10T14:10:08;25.00;66.50
42145;DHT22;27813;43.516;11.890;2023-06-10T14:14:13;24.60;69.60
42145;DHT22;27813;43.516;11.890;2023-06-10T14:18:17;24.40;71.90
42145;DHT22;27813;43.516;11.890;2023-06-10T14:22:22;24.30;73.90
42145;DHT22;27813;43.516;11.890;2023-06-10T14:26:26;24.10;75.30
42145;DHT22;27813;43.516;11.890;2023-06-10T14:30:30;24.20;76.20
42145;DHT22;27813;43.516;11.890;2023-06-10T14:34:34;24.30;76.80
42145;DHT22;27813;43.516;11.890;2023-06-10T14:38:38;24.50;76.90
42145;DHT22;27813;43.516;11.890;2023-06-10T14:42:42;24.90;76.70
42145;DHT22;27813;43.516;11.890;2023-06-10T14:46:46;25.20;76.50
42145;DHT22;27813;43.516;11.890;2023-06-10T14:50:51;25.60;76.30
42145;DHT22;27813;43.516;11.890;2023-06-10T14:54:55;26.00;76.10
42145;DHT22;27813;43.516;11.890;2023-06-10T14:58:59;26.30;75.50
42145;DHT22;27813;43.516;11.890;2023-06-10T15:03:04;26.70;74.80
42145;DHT22;27813;43.516;11.890;2023-06-10T15:07:10;27.40;74.10
42145;DHT22;27813;43.516;11.890;2023-06-10T15:11:15;28.70;72.20
42145;DHT22;27813;43.516;11.890;2023-06-10T15:15:20;30.00;69.20
42145;DHT22;27813;43.516;11.890;2023-06-10T15:19:25;31.00;66.10
42145;DHT22;27813;43.516;11.890;2023-06-10T15:23:30;31.60;63.30
42145;DHT22;27813;43.516;11.890;2023-06-10T15:27:35;32.00;61.80
42145;DHT22;27813;43.516;11.890;2023-06-10T15:31:40;32.10;60.30
42145;DHT22;27813;43.516;11.890;2023-06-10T15:35:45;31.90;58.80
42145;DHT22;27813;43.516;11.890;2023-06-10T15:39:50;31.20;59.30
42145;DHT22;27813;43.516;11.890;2023-06-10T15:43:54;30.60;59.40
42145;DHT22;27813;43.516;11.890;2023-06-10T15:47:59;30.20;59.80
42145;DHT22;27813;43.516;11.890;2023-06-10T15:52:04;29.90;60.00
42145;DHT22;27813;43.516;11.890;2023-06-10T15:56:09;29.80;59.80
42145;DHT22;27813;43.516;11.890;2023-06-10T16:00:14;29.70;59.40
42145;DHT22;27813;43.516;11.890;2023-06-10T16:04:19;29.50;59.60
42145;DHT22;27813;43.516;11.890;2023-06-10T16:08:24;29.30;59.80
42145;DHT22;27813;43.516;11.890;2023-06-10T16:12:29;29.10;60.00
42145;DHT22;27813;43.516;11.890;2023-06-10T16:16:34;28.90;60.50
42145;DHT22;27813;43.516;11.890;2023-06-10T16:20:45;29.00;60.70
42145;DHT22;27813;43.516;11.890;2023-06-10T16:24:57;29.30;60.20
42145;DHT22;27813;43.516;11.890;2023-06-10T16:29:02;29.50;59.50
42145;DHT22;27813;43.516;11.890;2023-06-10T16:33:07;29.70;58.90
42145;DHT22;27813;43.516;11.890;2023-06-10T16:37:13;29.90;58.30
42145;DHT22;27813;43.516;11.890;2023-06-10T16:41:18;30.00;57.60
42145;DHT22;27813;43.516;11.890;2023-06-10T16:45:23;29.80;56.80
42145;DHT22;27813;43.516;11.890;2023-06-10T16:49:28;29.20;56.80
42145;DHT22;27813;43.516;11.890;2023-06-10T16:53:34;28.70;57.60
42145;DHT22;27813;43.516;11.890;2023-06-10T16:57:39;28.10;58.20
42145;DHT22;27813;43.516;11.890;2023-06-10T17:01:44;27.50;59.00
42145;DHT22;27813;43.516;11.890;2023-06-10T17:05:49;27.10;59.60
42145;DHT22;27813;43.516;11.890;2023-06-10T17:09:54;26.80;60.10
42145;DHT22;27813;43.516;11.890;2023-06-10T17:14:00;26.60;60.40
42145;DHT22;27813;43.516;11.890;2023-06-10T17:18:05;26.60;60.50
42145;DHT22;27813;43.516;11.890;2023-06-10T17:22:09;26.50;60.60
42145;DHT22;27813;43.516;11.890;2023-06-10T17:26:15;26.40;60.60
42145;DHT22;27813;43.516;11.890;2023-06-10T17:30:20;26.30;60.80
42145;DHT22;27813;43.516;11.890;2023-06-10T17:34:25;26.20;61.00
42145;DHT22;27813;43.516;11.890;2023-06-10T17:38:30;26.10;61.10
42145;DHT22;27813;43.516;11.890;2023-06-10T17:42:34;26.00;61.30
42145;DHT22;27813;43.516;11.890;2023-06-10T17:46:42;25.80;61.50
42145;DHT22;27813;43.516;11.890;2023-06-10T17:50:48;25.60;61.80
42145;DHT22;27813;43.516;11.890;2023-06-10T17:54:54;25.30;62.30
42145;DHT22;27813;43.516;11.890;2023-06-10T17:59:01;25.00;62.90
42145;DHT22;27813;43.516;11.890;2023-06-10T18:03:07;24.60;63.60
42145;DHT22;27813;43.516;11.890;2023-06-10T18:07:12;24.30;64.30
42145;DHT22;27813;43.516;11.890;2023-06-10T18:11:17;24.00;64.90
42145;DHT22;27813;43.516;11.890;2023-06-10T18:15:21;23.70;65.50
42145;DHT22;27813;43.516;11.890;2023-06-10T18:19:28;23.50;66.00
42145;DHT22;27813;43.516;11.890;2023-06-10T18:23:47;23.20;66.50
42145;DHT22;27813;43.516;11.890;2023-06-10T18:27:59;22.90;67.20
42145;DHT22;27813;43.516;11.890;2023-06-10T18:32:16;22.70;68.00
42145;DHT22;27813;43.516;11.890;2023-06-10T18:36:44;22.40;68.70
42145;DHT22;27813;43.516;11.890;2023-06-10T18:40:49;22.30;69.00
42145;DHT22;27813;43.516;11.890;2023-06-10T18:44:54;22.30;69.40
42145;DHT22;27813;43.516;11.890;2023-06-10T18:48:58;22.20;69.70
42145;DHT22;27813;43.516;11.890;2023-06-10T18:53:03;22.00;70.40
42145;DHT22;27813;43.516;11.890;2023-06-10T18:57:09;21.90;70.80
42145;DHT22;27813;43.516;11.890;2023-06-10T19:01:14;21.80;71.20
42145;DHT22;27813;43.516;11.890;2023-06-10T19:05:19;21.70;71.40
42145;DHT22;27813;43.516;11.890;2023-06-10T19:09:23;21.60;71.70
42145;DHT22;27813;43.516;11.890;2023-06-10T19:13:27;21.60;72.00
42145;DHT22;27813;43.516;11.890;2023-06-10T19:17:31;21.50;72.10
42145;DHT22;27813;43.516;11.890;2023-06-10T19:21:35;21.50;72.30
42145;DHT22;27813;43.516;11.890;2023-06-10T19:25:40;21.40;72.60
42145;DHT22;27813;43.516;11.890;2023-06-10T19:29:44;21.30;72.90
42145;DHT22;27813;43.516;11.890;2023-06-10T19:33:48;21.30;73.00
42145;DHT22;27813;43.516;11.890;2023-06-10T19:37:52;21.20;73.20
42145;DHT22;27813;43.516;11.890;2023-06-10T19:41:57;21.10;73.60
42145;DHT22;27813;43.516;11.890;2023-06-10T19:46:01;21.00;73.90
42145;DHT22;27813;43.516;11.890;2023-06-10T19:50:06;21.00;74.10
42145;DHT22;27813;43.516;11.890;2023-06-10T19:54:10;20.90;74.40
42145;DHT22;27813;43.516;11.890;2023-06-10T19:58:14;20.90;74.50
42145;DHT22;27813;43.516;11.890;2023-06-10T20:02:19;20.80;74.60
42145;DHT22;27813;43.516;11.890;2023-06-10T20:06:24;20.80;74.80
42145;DHT22;27813;43.516;11.890;2023-06-10T20:10:28;20.80;74.90
42145;DHT22;27813;43.516;11.890;2023-06-10T20:14:34;20.70;75.00
42145;DHT22;27813;43.516;11.890;2023-06-10T20:18:38;20.70;75.20
42145;DHT22;27813;43.516;11.890;2023-06-10T20:22:43;20.70;75.20
42145;DHT22;27813;43.516;11.890;2023-06-10T20:26:48;20.60;75.30
42145;DHT22;27813;43.516;11.890;2023-06-10T20:30:52;20.50;75.50
42145;DHT22;27813;43.516;11.890;2023-06-10T20:34:56;20.40;75.90
42145;DHT22;27813;43.516;11.890;2023-06-10T20:39:00;20.40;76.00
42145;DHT22;27813;43.516;11.890;2023-06-10T20:43:05;20.30;76.20
42145;DHT22;27813;43.516;11.890;2023-06-10T20:47:09;20.20;76.40
42145;DHT22;27813;43.516;11.890;2023-06-10T20:51:14;20.20;76.60
42145;DHT22;27813;43.516;11.890;2023-06-10T20:55:19;20.10;76.80
42145;DHT22;27813;43.516;11.890;2023-06-10T20:59:23;20.00;76.90
42145;DHT22;27813;43.516;11.890;2023-06-10T21:03:27;19.90;77.10
42145;DHT22;27813;43.516;11.890;2023-06-10T21:07:31;19.80;77.30
42145;DHT22;27813;43.516;11.890;2023-06-10T21:11:36;19.70;77.50
42145;DHT22;27813;43.516;11.890;2023-06-10T21:15:41;19.70;77.70
42145;DHT22;27813;43.516;11.890;2023-06-10T21:19:45;19.60;77.80
42145;DHT22;27813;43.516;11.890;2023-06-10T21:23:49;19.60;77.90
42145;DHT22;27813;43.516;11.890;2023-06-10T21:27:56;19.50;78.00
42145;DHT22;27813;43.516;11.890;2023-06-10T21:32:01;19.50;78.10
42145;DHT22;27813;43.516;11.890;2023-06-10T21:36:05;19.50;78.30
42145;DHT22;27813;43.516;11.890;2023-06-10T21:40:10;19.40;78.50
42145;DHT22;27813;43.516;11.890;2023-06-10T21:44:15;19.40;78.60
42145;DHT22;27813;43.516;11.890;2023-06-10T21:48:20;19.40;78.90
42145;DHT22;27813;43.516;11.890;2023-06-10T21:52:26;19.40;79.00
42145;DHT22;27813;43.516;11.890;2023-06-10T21:56:30;19.40;79.00
42145;DHT22;27813;43.516;11.890;2023-06-10T22:00:37;19.50;79.00
42145;DHT22;27813;43.516;11.890;2023-06-10T22:04:43;19.50;79.10
42145;DHT22;27813;43.516;11.890;2023-06-10T22:08:48;19.50;79.10
42145;DHT22;27813;43.516;11.890;2023-06-10T22:12:53;19.50;79.00
42145;DHT22;27813;43.516;11.890;2023-06-10T22:16:57;19.60;78.90
42145;DHT22;27813;43.516;11.890;2023-06-10T22:21:01;19.60;78.90
42145;DHT22;27813;43.516;11.890;2023-06-10T22:25:08;19.50;79.00
42145;DHT22;27813;43.516;11.890;2023-06-10T22:29:13;19.50;79.10
42145;DHT22;27813;43.516;11.890;2023-06-10T22:33:22;19.50;79.20
42145;DHT22;27813;43.516;11.890;2023-06-10T22:37:26;19.40;79.30
42145;DHT22;27813;43.516;11.890;2023-06-10T22:41:30;19.40;79.50
42145;DHT22;27813;43.516;11.890;2023-06-10T22:45:34;19.30;79.50
42145;DHT22;27813;43.516;11.890;2023-06-10T22:49:39;19.30;79.60
42145;DHT22;27813;43.516;11.890;2023-06-10T22:53:44;19.30;79.70
42145;DHT22;27813;43.516;11.890;2023-06-10T22:57:49;19.30;79.80
42145;DHT22;27813;43.516;11.890;2023-06-10T23:01:53;19.30;79.80
42145;DHT22;27813;43.516;11.890;2023-06-10T23:05:58;19.20;79.90
42145;DHT22;27813;43.516;11.890;2023-06-10T23:10:03;19.20;80.10
42145;DHT22;27813;43.516;11.890;2023-06-10T23:14:07;19.20;80.10
42145;DHT22;27813;43.516;11.890;2023-06-10T23:18:15;19.20;80.10
42145;DHT22;27813;43.516;11.890;2023-06-10T23:22:20;19.20;80.20
42145;DHT22;27813;43.516;11.890;2023-06-10T23:26:27;19.20;80.30
